Time,TemperatureF,DewpointF,PressureIn,WindDirection,WindDirectionDegrees,WindSpeedMPH,WindSpeedGustMPH,Humidity,HourlyPrecipIn,Conditions,Clouds,dailyrainin,SolarRadiationWatts/m^2,SoftwareType,DateUTC
2013-01-15 00:00:00,44.0,42.4,30.39,South,191,7.0,14.0,94,0.05,,SCT,0.00,0.00,VWS V14.01,2013-01-15 05:00:00,
2013-01-15 00:01:00,43.9,42.3,30.39,SSW,213,3.0,14.0,94,0.05,,SCT,0.00,0.00,VWS V14.01,2013-01-15 05:01:00,
2013-01-15 00:02:00,43.9,42.3,30.39,SSE,161,9.0,14.0,94,0.05,,SCT,0.00,0.00,VWS V14.01,2013-01-15 05:02:00,
2013-01-15 00:07:00,43.8,42.2,30.39,SSW,198,8.0,14.0,94,0.06,,SCT,0.01,0.00,VWS V14.01,2013-01-15 05:07:00,
2013-01-15 00:12:00,43.8,42.2,30.38,SSW,201,6.0,14.0,94,0.06,,SCT,0.01,0.00,VWS V14.01,2013-01-15 05:12:00,
2013-01-15 00:17:00,43.7,42.4,30.37,SW,228,7.0,14.0,95,0.07,,SCT,0.02,0.00,VWS V14.01,2013-01-15 05:17:00,
2013-01-15 00:22:00,43.7,42.4,30.37,SW,215,6.0,14.0,95,0.07,,SCT,0.02,0.00,VWS V14.01,2013-01-15 05:22:00,
2013-01-15 00:27:00,43.6,42.3,30.38,SW,225,8.0,14.0,95,0.08,,SCT,0.03,0.00,VWS V14.01,2013-01-15 05:27:00,
2013-01-15 00:32:00,43.4,42.1,30.37,SW,223,4.0,14.0,95,0.09,,SCT,0.04,0.00,VWS V14.01,2013-01-15 05:32:00,
2013-01-15 00:37:00,43.3,42.0,30.38,SSW,213,7.0,14.0,95,0.09,,SCT,0.04,0.00,VWS V14.01,2013-01-15 05:37:00,
2013-01-15 00:42:00,43.3,42.0,30.37,SW,214,4.0,14.0,95,0.10,,SCT,0.05,0.00,VWS V14.01,2013-01-15 05:42:00,
2013-01-15 00:47:00,43.3,42.0,30.38,SW,224,3.0,14.0,95,0.11,,SCT,0.06,0.00,VWS V14.01,2013-01-15 05:47:00,
2013-01-15 00:52:00,43.2,41.9,30.37,SW,220,5.0,14.0,95,0.12,,SCT,0.07,0.00,VWS V14.01,2013-01-15 05:52:00,
2013-01-15 00:57:00,43.1,41.8,30.38,South,186,3.0,4.0,95,0.07,,SCT,0.07,0.00,VWS V14.01,2013-01-15 05:57:00,
2013-01-15 01:00:00,43.2,41.9,30.37,SW,216,1.0,14.0,95,0.12,,SCT,0.07,0.00,VWS V14.01,2013-01-15 06:00:00,
2013-01-15 01:02:00,43.1,41.8,30.39,South,185,0.0,4.0,95,0.08,,SCT,0.08,0.00,VWS V14.01,2013-01-15 06:02:00,
2013-01-15 01:07:00,43.0,41.7,30.38,SSW,213,4.0,6.0,95,0.09,,SCT,0.09,0.00,VWS V14.01,2013-01-15 06:07:00,
2013-01-15 01:12:00,42.8,41.5,30.38,SW,235,3.0,6.0,95,0.09,,SCT,0.09,0.00,VWS V14.01,2013-01-15 06:12:00,
2013-01-15 01:17:00,42.6,41.3,30.37,SW,232,6.0,6.0,95,0.10,,SCT,0.10,0.00,VWS V14.01,2013-01-15 06:17:00,
2013-01-15 01:22:00,42.3,41.0,30.36,SW,223,5.0,7.0,95,0.11,,SCT,0.11,0.00,VWS V14.01,2013-01-15 06:22:00,
2013-01-15 01:27:00,42.2,40.9,30.36,SW,236,4.0,8.0,95,0.11,,SCT,0.11,0.00,VWS V14.01,2013-01-15 06:27:00,
2013-01-15 01:32:00,42.0,40.7,30.37,SW,224,0.0,8.0,95,0.11,,SCT,0.11,0.00,VWS V14.01,2013-01-15 06:32:00,
2013-01-15 01:37:00,41.9,40.6,30.36,SSW,201,9.0,11.0,95,0.11,,SCT,0.11,0.00,VWS V14.01,2013-01-15 06:37:00,
2013-01-15 01:42:00,41.8,40.5,30.37,WSW,252,6.0,11.0,95,0.12,,SCT,0.12,0.00,VWS V14.01,2013-01-15 06:42:00,
2013-01-15 01:47:00,41.7,40.4,30.36,WSW,240,4.0,11.0,95,0.12,,SCT,0.12,0.00,VWS V14.01,2013-01-15 06:47:00,
2013-01-15 01:52:00,41.7,40.4,30.37,SW,235,1.0,11.0,95,0.12,,SCT,0.12,0.00,VWS V14.01,2013-01-15 06:52:00,
2013-01-15 01:57:00,41.7,40.4,30.37,WSW,239,1.0,4.0,95,0.06,,SCT,0.13,0.00,VWS V14.01,2013-01-15 06:57:00,
2013-01-15 02:00:00,41.7,40.4,30.37,SW,235,4.0,11.0,95,0.12,,SCT,0.12,0.00,VWS V14.01,2013-01-15 07:00:00,
2013-01-15 02:02:00,41.7,40.4,30.36,WSW,250,6.0,6.0,95,0.06,,SCT,0.13,0.00,VWS V14.01,2013-01-15 07:02:00,
2013-01-15 02:07:00,41.7,40.4,30.36,West,268,3.0,6.0,95,0.07,,SCT,0.14,0.00,VWS V14.01,2013-01-15 07:07:00,
2013-01-15 02:12:00,41.5,40.2,30.36,West,277,0.0,8.0,95,0.08,,SCT,0.15,0.00,VWS V14.01,2013-01-15 07:12:00,
2013-01-15 02:17:00,41.4,40.1,30.36,SW,222,5.0,8.0,95,0.08,,SCT,0.15,0.00,VWS V14.01,2013-01-15 07:17:00,
2013-01-15 02:22:00,41.1,39.8,30.36,SW,221,3.0,8.0,95,0.09,,SCT,0.16,0.00,VWS V14.01,2013-01-15 07:22:00,
2013-01-15 02:27:00,40.9,39.6,30.37,SSW,211,0.0,8.0,95,0.09,,SCT,0.16,0.00,VWS V14.01,2013-01-15 07:27:00,
2013-01-15 02:32:00,40.8,39.5,30.38,SW,218,0.0,8.0,95,0.10,,SCT,0.17,0.00,VWS V14.01,2013-01-15 07:32:00,
2013-01-15 02:37:00,40.8,39.5,30.38,SW,219,4.0,8.0,95,0.11,,SCT,0.18,0.00,VWS V14.01,2013-01-15 07:37:00,
2013-01-15 02:42:00,40.8,39.5,30.38,WSW,255,2.0,8.0,95,0.11,,SCT,0.18,0.00,VWS V14.01,2013-01-15 07:42:00,
2013-01-15 02:47:00,40.7,39.4,30.38,WSW,238,1.0,8.0,95,0.12,,SCT,0.19,0.00,VWS V14.01,2013-01-15 07:47:00,
2013-01-15 02:52:00,40.7,39.4,30.38,WSW,254,3.0,8.0,95,0.13,,SCT,0.20,0.00,VWS V14.01,2013-01-15 07:52:00,
2013-01-15 02:57:00,40.7,39.4,30.38,WSW,243,5.0,6.0,95,0.09,,SCT,0.21,0.00,VWS V14.01,2013-01-15 07:57:00,
2013-01-15 03:00:00,40.7,39.4,30.38,WSW,250,4.0,8.0,95,0.13,,SCT,0.20,0.00,VWS V14.01,2013-01-15 08:00:00,
2013-01-15 03:02:00,40.7,39.4,30.38,WSW,254,4.0,6.0,95,0.10,,SCT,0.22,0.00,VWS V14.01,2013-01-15 08:02:00,
2013-01-15 03:07:00,40.6,39.3,30.38,SW,229,3.0,6.0,95,0.10,,SCT,0.22,0.00,VWS V14.01,2013-01-15 08:07:00,
2013-01-15 03:12:00,40.7,39.4,30.38,SW,229,2.0,6.0,95,0.11,,SCT,0.23,0.00,VWS V14.01,2013-01-15 08:12:00,
2013-01-15 03:17:00,40.6,39.3,30.38,SW,226,3.0,6.0,95,0.12,,SCT,0.24,0.00,VWS V14.01,2013-01-15 08:17:00,
2013-01-15 03:22:00,40.6,39.3,30.38,SW,226,4.0,6.0,95,0.13,,SCT,0.25,0.00,VWS V14.01,2013-01-15 08:22:00,
2013-01-15 03:27:00,40.6,39.3,30.38,SW,226,3.0,6.0,95,0.14,,SCT,0.26,0.00,VWS V14.01,2013-01-15 08:27:00,
2013-01-15 03:32:00,40.6,39.3,30.38,SW,226,3.0,6.0,95,0.14,,SCT,0.26,0.00,VWS V14.01,2013-01-15 08:32:00,
2013-01-15 03:37:00,40.6,39.3,30.38,SW,226,1.0,6.0,95,0.15,,SCT,0.27,0.00,VWS V14.01,2013-01-15 08:37:00,
2013-01-15 03:42:00,40.6,39.3,30.38,SW,226,2.0,6.0,95,0.16,,SCT,0.28,0.00,VWS V14.01,2013-01-15 08:42:00,
2013-01-15 03:47:00,40.6,39.5,30.38,SW,226,2.0,6.0,96,0.17,,SCT,0.29,0.00,VWS V14.01,2013-01-15 08:47:00,
2013-01-15 03:52:00,40.6,39.5,30.36,SW,226,4.0,6.0,96,0.18,,SCT,0.30,0.00,VWS V14.01,2013-01-15 08:52:00,
2013-01-15 03:57:00,40.6,39.5,30.36,SW,223,2.0,4.0,96,0.10,,SCT,0.30,0.00,VWS V14.01,2013-01-15 08:57:00,
2013-01-15 04:00:00,40.6,39.5,30.36,SW,226,3.0,6.0,96,0.18,,SCT,0.30,0.00,VWS V14.01,2013-01-15 09:00:00,
2013-01-15 04:02:00,40.6,39.5,30.37,SSE,157,6.0,7.0,96,0.11,,SCT,0.31,0.00,VWS V14.01,2013-01-15 09:02:00,
2013-01-15 04:07:00,40.6,39.5,30.37,South,178,0.0,7.0,96,0.12,,SCT,0.32,0.00,VWS V14.01,2013-01-15 09:07:00,
2013-01-15 04:12:00,40.6,39.5,30.37,SSW,193,6.0,9.0,96,0.13,,SCT,0.33,0.00,VWS V14.01,2013-01-15 09:12:00,
2013-01-15 04:17:00,40.4,39.3,30.38,SE,136,6.0,12.0,96,0.14,,SCT,0.34,0.00,VWS V14.01,2013-01-15 09:17:00,
2013-01-15 04:22:00,40.3,39.2,30.36,West,271,6.0,12.0,96,0.14,,SCT,0.34,0.00,VWS V14.01,2013-01-15 09:22:00,
2013-01-15 04:27:00,40.2,39.2,30.35,West,281,8.0,12.0,96,0.14,,SCT,0.34,0.00,VWS V14.01,2013-01-15 09:27:00,
2013-01-15 04:32:00,40.1,39.0,30.35,SSW,203,7.0,12.0,96,0.15,,SCT,0.35,0.00,VWS V14.01,2013-01-15 09:32:00,
2013-01-15 04:37:00,40.1,39.0,30.35,SSE,167,5.0,12.0,96,0.15,,SCT,0.35,0.00,VWS V14.01,2013-01-15 09:37:00,
2013-01-15 04:42:00,40.1,39.0,30.35,SSE,164,7.0,12.0,96,0.15,,SCT,0.35,0.00,VWS V14.01,2013-01-15 09:42:00,
2013-01-15 04:47:00,40.1,39.0,30.37,ESE,105,2.0,12.0,96,0.15,,SCT,0.35,0.00,VWS V14.01,2013-01-15 09:47:00,
2013-01-15 04:52:00,40.2,39.2,30.35,SSW,210,5.0,12.0,96,0.15,,SCT,0.35,0.00,VWS V14.01,2013-01-15 09:52:00,
2013-01-15 04:57:00,40.2,39.2,30.36,SSE,161,0.0,5.0,96,0.05,,SCT,0.35,0.00,VWS V14.01,2013-01-15 09:57:00,
2013-01-15 05:00:00,40.2,39.2,30.34,WSW,241,3.0,12.0,96,0.15,,SCT,0.35,0.00,VWS V14.01,2013-01-15 10:00:00,
2013-01-15 05:02:00,40.2,39.2,30.37,SSE,165,0.0,5.0,96,0.05,,SCT,0.35,0.00,VWS V14.01,2013-01-15 10:02:00,
2013-01-15 05:07:00,40.2,39.2,30.36,SSE,153,2.0,5.0,96,0.05,,SCT,0.35,0.00,VWS V14.01,2013-01-15 10:07:00,
2013-01-15 05:12:00,40.3,39.2,30.38,SE,131,6.0,8.0,96,0.05,,SCT,0.35,0.00,VWS V14.01,2013-01-15 10:12:00,
2013-01-15 05:17:00,40.3,39.2,30.37,South,171,2.0,8.0,96,0.05,,SCT,0.35,0.00,VWS V14.01,2013-01-15 10:17:00,
2013-01-15 05:22:00,40.3,39.2,30.35,SSW,197,2.0,8.0,96,0.05,,SCT,0.35,0.00,VWS V14.01,2013-01-15 10:22:00,
2013-01-15 05:27:00,40.3,39.2,30.36,SSE,149,1.0,8.0,96,0.05,,SCT,0.35,0.00,VWS V14.01,2013-01-15 10:27:00,
2013-01-15 05:32:00,40.3,39.2,30.36,SSE,148,5.0,8.0,96,0.05,,SCT,0.35,0.00,VWS V14.01,2013-01-15 10:32:00,
2013-01-15 05:37:00,40.3,39.2,30.36,SSE,147,5.0,8.0,96,0.05,,SCT,0.35,0.00,VWS V14.01,2013-01-15 10:37:00,
2013-01-15 05:42:00,40.2,39.2,30.37,SE,141,4.0,8.0,96,0.05,,SCT,0.35,0.00,VWS V14.01,2013-01-15 10:42:00,
2013-01-15 05:47:00,40.3,39.2,30.36,SSE,151,0.0,8.0,96,0.05,,SCT,0.35,0.00,VWS V14.01,2013-01-15 10:47:00,
2013-01-15 05:52:00,40.3,39.2,30.36,South,180,3.0,8.0,96,0.05,,SCT,0.35,0.00,VWS V14.01,2013-01-15 10:52:00,
2013-01-15 05:57:00,40.4,39.3,30.36,South,180,0.0,1.0,96,0.00,,SCT,0.35,0.00,VWS V14.01,2013-01-15 10:57:00,
2013-01-15 06:00:00,40.3,39.2,30.36,South,180,0.0,8.0,96,0.05,,SCT,0.35,0.00,VWS V14.01,2013-01-15 11:00:00,
2013-01-15 06:02:00,40.4,39.3,30.37,South,180,0.0,2.0,96,0.00,,SCT,0.35,0.00,VWS V14.01,2013-01-15 11:02:00,
2013-01-15 06:07:00,40.4,39.3,30.37,South,173,1.0,4.0,96,0.00,,SCT,0.35,0.00,VWS V14.01,2013-01-15 11:07:00,
2013-01-15 06:12:00,40.3,39.2,30.37,SSE,152,4.0,7.0,96,0.00,,SCT,0.35,0.00,VWS V14.01,2013-01-15 11:12:00,
2013-01-15 06:17:00,40.3,39.2,30.37,SSW,203,6.0,11.0,96,0.00,,SCT,0.35,0.00,VWS V14.01,2013-01-15 11:17:00,
2013-01-15 06:22:00,40.4,39.3,30.37,SSW,205,3.0,11.0,96,0.00,,SCT,0.35,0.00,VWS V14.01,2013-01-15 11:22:00,
2013-01-15 06:27:00,40.3,39.2,30.35,SW,234,2.0,11.0,96,0.00,,SCT,0.35,0.00,VWS V14.01,2013-01-15 11:27:00,
2013-01-15 06:32:00,40.3,39.2,30.39,SE,132,4.0,11.0,96,0.00,,SCT,0.35,0.00,VWS V14.01,2013-01-15 11:32:00,
2013-01-15 06:37:00,40.3,39.2,30.39,SSE,149,0.0,11.0,96,0.00,,SCT,0.35,0.00,VWS V14.01,2013-01-15 11:37:00,
2013-01-15 06:42:00,40.3,39.2,30.39,SSE,155,0.0,11.0,96,0.00,,SCT,0.35,0.00,VWS V14.01,2013-01-15 11:42:00,
2013-01-15 06:47:00,40.3,39.2,30.39,South,191,3.0,11.0,96,0.00,,SCT,0.35,0.00,VWS V14.01,2013-01-15 11:47:00,
2013-01-15 06:52:00,40.3,39.0,30.38,SSW,198,4.0,11.0,95,0.00,,SCT,0.35,0.00,VWS V14.01,2013-01-15 11:52:00,
2013-01-15 06:57:00,40.3,39.0,30.39,SSE,150,1.0,10.0,95,0.00,,SCT,0.35,0.00,VWS V14.01,2013-01-15 11:57:00,
2013-01-15 07:00:00,40.3,39.0,30.38,SSE,166,6.0,11.0,95,0.00,,SCT,0.35,0.00,VWS V14.01,2013-01-15 12:00:00,
2013-01-15 07:02:00,40.3,39.0,30.40,SSW,200,1.0,10.0,95,0.00,,SCT,0.35,0.00,VWS V14.01,2013-01-15 12:02:00,
2013-01-15 07:07:00,40.3,39.0,30.40,SSW,200,0.0,10.0,95,0.00,,SCT,0.35,0.00,VWS V14.01,2013-01-15 12:07:00,
2013-01-15 07:12:00,40.3,39.0,30.41,SSE,156,0.0,10.0,95,0.00,,SCT,0.35,0.00,VWS V14.01,2013-01-15 12:12:00,
2013-01-15 07:17:00,40.4,39.1,30.40,SSE,163,2.0,10.0,95,0.00,,SCT,0.35,0.00,VWS V14.01,2013-01-15 12:17:00,
2013-01-15 07:22:00,40.4,39.1,30.40,SSW,209,5.0,10.0,95,0.00,,SCT,0.35,0.00,VWS V14.01,2013-01-15 12:22:00,
2013-01-15 07:27:00,40.4,39.1,30.40,SSW,209,0.0,10.0,95,0.00,,SCT,0.35,0.00,VWS V14.01,2013-01-15 12:27:00,
2013-01-15 07:32:00,40.4,39.1,30.41,SSW,209,0.0,10.0,95,0.00,,SCT,0.35,0.00,VWS V14.01,2013-01-15 12:32:00,
2013-01-15 07:37:00,40.4,39.1,30.41,SE,134,0.0,10.0,95,0.00,,SCT,0.35,0.00,VWS V14.01,2013-01-15 12:37:00,
2013-01-15 07:42:00,40.5,39.2,30.41,South,188,2.0,10.0,95,0.00,,SCT,0.35,0.00,VWS V14.01,2013-01-15 12:42:00,
2013-01-15 07:47:00,40.5,39.2,30.42,SE,128,2.0,10.0,95,0.00,,SCT,0.35,0.00,VWS V14.01,2013-01-15 12:47:00,
2013-01-15 07:52:00,40.6,39.3,30.42,SE,128,2.0,10.0,95,0.00,,SCT,0.35,0.00,VWS V14.01,2013-01-15 12:52:00,
2013-01-15 07:57:00,40.6,39.3,30.42,SSE,161,0.0,7.0,95,0.00,,SCT,0.35,0.00,VWS V14.01,2013-01-15 12:57:00,
2013-01-15 08:00:00,40.6,39.3,30.43,ESE,121,5.0,10.0,95,0.00,,SCT,0.35,0.00,VWS V14.01,2013-01-15 13:00:00,
2013-01-15 08:02:00,40.7,39.4,30.42,South,186,0.0,7.0,95,0.00,,SCT,0.35,0.00,VWS V14.01,2013-01-15 13:02:00,
2013-01-15 08:07:00,40.7,39.4,30.41,South,186,0.0,7.0,95,0.00,,SCT,0.35,0.00,VWS V14.01,2013-01-15 13:07:00,
2013-01-15 08:12:00,40.6,39.3,30.41,SSE,150,4.0,7.0,95,0.00,,SCT,0.35,5.00,VWS V14.01,2013-01-15 13:12:00,
2013-01-15 08:17:00,40.6,39.3,30.42,SSE,165,0.0,7.0,95,0.00,,SCT,0.35,0.00,VWS V14.01,2013-01-15 13:17:00,
2013-01-15 08:22:00,40.7,39.4,30.42,SSE,147,4.0,9.0,95,0.00,,SCT,0.35,5.00,VWS V14.01,2013-01-15 13:22:00,
2013-01-15 08:27:00,40.7,39.4,30.41,SSW,196,2.0,9.0,95,0.00,,SCT,0.35,7.00,VWS V14.01,2013-01-15 13:27:00,
2013-01-15 08:32:00,40.7,39.4,30.43,SSE,153,5.0,9.0,95,0.00,,SCT,0.35,5.00,VWS V14.01,2013-01-15 13:32:00,
2013-01-15 08:37:00,40.7,39.4,30.44,SE,134,6.0,9.0,95,0.00,,SCT,0.35,5.00,VWS V14.01,2013-01-15 13:37:00,
2013-01-15 08:42:00,40.8,39.5,30.42,WSW,248,5.0,9.0,95,0.00,,SCT,0.35,11.00,VWS V14.01,2013-01-15 13:42:00,
2013-01-15 08:47:00,40.8,39.5,30.41,West,263,2.0,9.0,95,0.00,,SCT,0.35,19.00,VWS V14.01,2013-01-15 13:47:00,
2013-01-15 08:52:00,40.8,39.5,30.43,SE,129,5.0,9.0,95,0.00,,SCT,0.35,9.00,VWS V14.01,2013-01-15 13:52:00,
2013-01-15 08:57:00,40.9,39.6,30.44,ESE,117,2.0,7.0,95,0.01,,SCT,0.36,9.00,VWS V14.01,2013-01-15 13:57:00,
2013-01-15 09:00:00,40.8,39.5,30.44,ESE,115,6.0,9.0,95,0.01,,SCT,0.36,7.00,VWS V14.01,2013-01-15 14:00:00,
2013-01-15 09:02:00,40.9,39.6,30.43,SE,126,0.0,7.0,95,0.01,,SCT,0.36,12.00,VWS V14.01,2013-01-15 14:02:00,
2013-01-15 09:07:00,41.0,39.7,30.44,SE,126,0.0,7.0,95,0.01,,SCT,0.36,11.00,VWS V14.01,2013-01-15 14:07:00,
2013-01-15 09:12:00,41.0,40.0,30.42,SSE,156,0.0,7.0,96,0.01,,SCT,0.36,25.00,VWS V14.01,2013-01-15 14:12:00,
2013-01-15 09:17:00,41.0,40.0,30.45,SE,128,4.0,7.0,96,0.02,,SCT,0.37,12.00,VWS V14.01,2013-01-15 14:17:00,
2013-01-15 09:22:00,41.1,40.0,30.46,SE,145,0.0,9.0,96,0.02,,SCT,0.37,12.00,VWS V14.01,2013-01-15 14:22:00,
2013-01-15 09:27:00,41.2,40.2,30.46,ESE,120,5.0,9.0,96,0.02,,SCT,0.37,12.00,VWS V14.01,2013-01-15 14:27:00,
2013-01-15 09:32:00,41.3,40.2,30.46,SSE,153,2.0,9.0,96,0.03,,SCT,0.38,21.00,VWS V14.01,2013-01-15 14:32:00,
2013-01-15 09:37:00,41.3,40.2,30.45,SSW,198,5.0,9.0,96,0.03,,SCT,0.38,16.00,VWS V14.01,2013-01-15 14:37:00,
2013-01-15 09:42:00,41.3,40.2,30.44,SW,229,3.0,9.0,96,0.03,,SCT,0.38,19.00,VWS V14.01,2013-01-15 14:42:00,
2013-01-15 09:47:00,41.3,40.2,30.45,SSE,161,1.0,9.0,96,0.04,,SCT,0.39,18.00,VWS V14.01,2013-01-15 14:47:00,
2013-01-15 09:52:00,41.3,40.2,30.46,SSE,157,2.0,9.0,96,0.04,,SCT,0.39,14.00,VWS V14.01,2013-01-15 14:52:00,
2013-01-15 09:57:00,41.4,40.3,30.46,SSE,150,0.0,2.0,96,0.03,,SCT,0.39,21.00,VWS V14.01,2013-01-15 14:57:00,
2013-01-15 10:00:00,41.4,40.3,30.46,SSE,150,2.0,9.0,96,0.04,,SCT,0.39,12.00,VWS V14.01,2013-01-15 15:00:00,
2013-01-15 10:02:00,41.5,40.5,30.45,SSE,159,0.0,4.0,96,0.04,,SCT,0.40,25.00,VWS V14.01,2013-01-15 15:02:00,
2013-01-15 10:07:00,41.5,40.5,30.45,South,169,4.0,5.0,96,0.04,,SCT,0.40,30.00,VWS V14.01,2013-01-15 15:07:00,
2013-01-15 10:12:00,41.5,40.5,30.45,South,184,5.0,7.0,96,0.04,,SCT,0.40,28.00,VWS V14.01,2013-01-15 15:12:00,
2013-01-15 10:17:00,41.5,40.5,30.45,SSW,197,4.0,7.0,96,0.05,,SCT,0.41,28.00,VWS V14.01,2013-01-15 15:17:00,
2013-01-15 10:22:00,41.5,40.5,30.45,SSW,204,2.0,7.0,96,0.05,,SCT,0.41,28.00,VWS V14.01,2013-01-15 15:22:00,
2013-01-15 10:27:00,41.5,40.5,30.45,SSW,203,0.0,7.0,96,0.06,,SCT,0.42,30.00,VWS V14.01,2013-01-15 15:27:00,
2013-01-15 10:32:00,41.6,40.5,30.45,South,179,6.0,9.0,96,0.06,,SCT,0.42,26.00,VWS V14.01,2013-01-15 15:32:00,
2013-01-15 10:37:00,41.5,40.5,30.45,SSW,213,7.0,9.0,96,0.07,,SCT,0.43,23.00,VWS V14.01,2013-01-15 15:37:00,
2013-01-15 10:42:00,41.5,40.5,30.43,SSW,211,4.0,9.0,96,0.08,,SCT,0.44,51.00,VWS V14.01,2013-01-15 15:42:00,
2013-01-15 10:47:00,41.5,40.5,30.43,SW,218,4.0,9.0,96,0.08,,SCT,0.44,62.00,VWS V14.01,2013-01-15 15:47:00,
2013-01-15 10:52:00,41.5,40.5,30.43,WSW,245,6.0,9.0,96,0.09,,SCT,0.45,58.00,VWS V14.01,2013-01-15 15:52:00,
2013-01-15 10:57:00,41.5,40.5,30.43,South,178,7.0,7.0,96,0.06,,SCT,0.45,56.00,VWS V14.01,2013-01-15 15:57:00,
2013-01-15 11:00:00,41.5,40.5,30.43,SW,224,2.0,9.0,96,0.09,,SCT,0.45,60.00,VWS V14.01,2013-01-15 16:00:00,
2013-01-15 11:02:00,41.6,40.5,30.43,South,175,5.0,7.0,96,0.06,,SCT,0.45,54.00,VWS V14.01,2013-01-15 16:02:00,
2013-01-15 11:07:00,41.6,40.5,30.43,South,188,6.0,8.0,96,0.07,,SCT,0.46,60.00,VWS V14.01,2013-01-15 16:07:00,
2013-01-15 11:12:00,41.7,40.7,30.43,SSW,205,5.0,8.0,96,0.07,,SCT,0.46,69.00,VWS V14.01,2013-01-15 16:12:00,
2013-01-15 11:17:00,41.8,40.8,30.43,South,182,4.0,8.0,96,0.07,,SCT,0.46,53.00,VWS V14.01,2013-01-15 16:17:00,
2013-01-15 11:22:00,41.9,40.8,30.43,SSW,196,2.0,8.0,96,0.07,,SCT,0.46,49.00,VWS V14.01,2013-01-15 16:22:00,
2013-01-15 11:27:00,41.8,40.8,30.44,SSE,165,5.0,10.0,96,0.07,,SCT,0.46,40.00,VWS V14.01,2013-01-15 16:27:00,
2013-01-15 11:32:00,41.8,40.8,30.44,SE,144,5.0,10.0,96,0.07,,SCT,0.46,37.00,VWS V14.01,2013-01-15 16:32:00,
2013-01-15 11:37:00,41.8,40.8,30.44,SSW,201,3.0,10.0,96,0.08,,SCT,0.47,39.00,VWS V14.01,2013-01-15 16:37:00,
2013-01-15 11:42:00,41.8,40.8,30.43,SSW,194,4.0,10.0,96,0.08,,SCT,0.47,32.00,VWS V14.01,2013-01-15 16:42:00,
2013-01-15 11:47:00,41.8,40.8,30.43,SSW,205,3.0,10.0,96,0.08,,SCT,0.47,30.00,VWS V14.01,2013-01-15 16:47:00,
2013-01-15 11:52:00,41.9,40.8,30.43,SSW,201,5.0,10.0,96,0.09,,SCT,0.48,40.00,VWS V14.01,2013-01-15 16:52:00,
2013-01-15 11:57:00,41.8,40.8,30.42,SW,230,5.0,10.0,96,0.03,,SCT,0.48,54.00,VWS V14.01,2013-01-15 16:57:00,
2013-01-15 12:00:00,41.9,40.8,30.42,SW,232,6.0,10.0,96,0.09,,SCT,0.48,47.00,VWS V14.01,2013-01-15 17:00:00,
2013-01-15 12:02:00,41.8,40.8,30.41,SSW,196,2.0,10.0,96,0.03,,SCT,0.48,54.00,VWS V14.01,2013-01-15 17:02:00,
2013-01-15 12:07:00,41.9,40.8,30.41,SSW,209,1.0,10.0,96,0.04,,SCT,0.49,47.00,VWS V14.01,2013-01-15 17:07:00,
2013-01-15 12:12:00,41.8,40.8,30.40,SW,230,7.0,10.0,96,0.04,,SCT,0.49,53.00,VWS V14.01,2013-01-15 17:12:00,
2013-01-15 12:17:00,41.8,40.8,30.39,SSW,199,5.0,10.0,96,0.04,,SCT,0.49,60.00,VWS V14.01,2013-01-15 17:17:00,
2013-01-15 12:22:00,41.9,40.8,30.40,South,170,2.0,10.0,96,0.04,,SCT,0.49,54.00,VWS V14.01,2013-01-15 17:22:00,
2013-01-15 12:27:00,42.0,40.9,30.41,SSE,167,5.0,10.0,96,0.05,,SCT,0.50,63.00,VWS V14.01,2013-01-15 17:27:00,
2013-01-15 12:32:00,42.0,40.9,30.40,SSE,155,2.0,11.0,96,0.05,,SCT,0.50,70.00,VWS V14.01,2013-01-15 17:32:00,
2013-01-15 12:37:00,42.0,40.9,30.40,South,174,2.0,11.0,96,0.05,,SCT,0.50,69.00,VWS V14.01,2013-01-15 17:37:00,
2013-01-15 12:42:00,42.0,40.9,30.40,South,170,8.0,11.0,96,0.05,,SCT,0.50,62.00,VWS V14.01,2013-01-15 17:42:00,
2013-01-15 12:47:00,42.0,40.9,30.41,SSE,162,2.0,11.0,96,0.05,,SCT,0.50,65.00,VWS V14.01,2013-01-15 17:47:00,
2013-01-15 12:52:00,42.0,40.7,30.40,South,171,5.0,11.0,95,0.05,,SCT,0.50,83.00,VWS V14.01,2013-01-15 17:52:00,
2013-01-15 12:57:00,42.0,40.7,30.40,SSW,192,6.0,9.0,95,0.03,,SCT,0.51,88.00,VWS V14.01,2013-01-15 17:57:00,
2013-01-15 13:00:00,42.0,40.7,30.40,SSE,165,0.0,11.0,95,0.06,,SCT,0.51,79.00,VWS V14.01,2013-01-15 18:00:00,
2013-01-15 13:02:00,42.0,40.7,30.38,South,169,4.0,9.0,95,0.03,,SCT,0.51,81.00,VWS V14.01,2013-01-15 18:02:00,
2013-01-15 13:07:00,42.0,40.7,30.38,South,181,6.0,13.0,95,0.03,,SCT,0.51,79.00,VWS V14.01,2013-01-15 18:07:00,
2013-01-15 13:12:00,42.0,40.7,30.37,SSW,200,7.0,13.0,95,0.03,,SCT,0.51,76.00,VWS V14.01,2013-01-15 18:12:00,
2013-01-15 13:17:00,42.0,40.7,30.38,SSW,200,7.0,13.0,95,0.03,,SCT,0.51,63.00,VWS V14.01,2013-01-15 18:17:00,
2013-01-15 13:22:00,41.9,40.6,30.38,South,184,6.0,13.0,95,0.03,,SCT,0.51,62.00,VWS V14.01,2013-01-15 18:22:00,
2013-01-15 13:27:00,41.9,40.6,30.37,South,173,8.0,13.0,95,0.03,,SCT,0.51,54.00,VWS V14.01,2013-01-15 18:27:00,
2013-01-15 13:32:00,41.9,40.6,30.37,South,176,6.0,13.0,95,0.03,,SCT,0.51,47.00,VWS V14.01,2013-01-15 18:32:00,
2013-01-15 13:37:00,41.7,40.1,30.39,SSE,157,5.0,13.0,94,0.03,,SCT,0.51,39.00,VWS V14.01,2013-01-15 18:37:00,
2013-01-15 13:42:00,41.7,40.1,30.38,SSW,192,10.0,13.0,94,0.03,,SCT,0.51,44.00,VWS V14.01,2013-01-15 18:42:00,
2013-01-15 13:46:00,41.6,40.0,30.37,SSW,192,8.0,13.0,94,0.03,,SCT,0.51,54.00,VWS V14.01,2013-01-15 18:46:00,
2013-01-15 13:52:00,41.6,40.0,30.36,SW,217,4.0,13.0,94,0.03,,SCT,0.51,69.00,VWS V14.01,2013-01-15 18:52:00,
2013-01-15 13:56:00,41.6,40.0,30.36,SSW,209,2.0,4.0,94,0.01,,SCT,0.52,72.00,VWS V14.01,2013-01-15 18:56:00,
2013-01-15 14:00:00,41.6,40.0,30.37,SSW,197,2.0,13.0,94,0.03,,SCT,0.51,60.00,VWS V14.01,2013-01-15 19:00:00,
2013-01-15 14:01:00,41.7,40.1,30.36,SSW,200,3.0,6.0,94,0.01,,SCT,0.52,81.00,VWS V14.01,2013-01-15 19:01:00,
2013-01-15 14:07:00,41.7,40.1,30.37,South,172,5.0,10.0,94,0.01,,SCT,0.52,42.00,VWS V14.01,2013-01-15 19:07:00,
2013-01-15 14:12:00,41.5,39.9,30.37,South,185,5.0,10.0,94,0.01,,SCT,0.52,37.00,VWS V14.01,2013-01-15 19:12:00,
2013-01-15 14:16:00,41.5,39.9,30.37,SSW,196,6.0,10.0,94,0.01,,SCT,0.52,33.00,VWS V14.01,2013-01-15 19:16:00,
2013-01-15 14:21:00,41.5,39.9,30.37,SSE,165,7.0,10.0,94,0.01,,SCT,0.52,37.00,VWS V14.01,2013-01-15 19:21:00,
2013-01-15 14:26:00,41.4,39.8,30.38,SSW,194,8.0,10.0,94,0.01,,SCT,0.52,35.00,VWS V14.01,2013-01-15 19:26:00,
2013-01-15 14:31:00,41.4,39.8,30.38,South,189,5.0,10.0,94,0.01,,SCT,0.52,37.00,VWS V14.01,2013-01-15 19:31:00,
2013-01-15 14:36:00,41.3,39.7,30.37,South,182,6.0,10.0,94,0.02,,SCT,0.53,37.00,VWS V14.01,2013-01-15 19:36:00,
2013-01-15 14:41:00,41.3,39.7,30.37,SSW,208,3.0,10.0,94,0.02,,SCT,0.53,35.00,VWS V14.01,2013-01-15 19:41:00,
2013-01-15 14:46:00,41.3,39.7,30.39,South,178,2.0,10.0,94,0.03,,SCT,0.54,26.00,VWS V14.01,2013-01-15 19:46:00,
2013-01-15 14:51:00,41.3,39.7,30.38,South,182,0.0,10.0,94,0.03,,SCT,0.54,37.00,VWS V14.01,2013-01-15 19:51:00,
2013-01-15 14:56:00,41.4,39.8,30.38,SSW,198,6.0,9.0,94,0.04,,SCT,0.55,42.00,VWS V14.01,2013-01-15 19:56:00,
2013-01-15 15:00:00,41.4,39.8,30.38,South,173,4.0,10.0,94,0.03,,SCT,0.54,35.00,VWS V14.01,2013-01-15 20:00:00,
2013-01-15 15:01:00,41.3,39.7,30.38,SSW,196,5.0,9.0,94,0.04,,SCT,0.55,37.00,VWS V14.01,2013-01-15 20:01:00,
2013-01-15 15:06:00,41.3,40.0,30.38,South,169,5.0,9.0,95,0.05,,SCT,0.56,33.00,VWS V14.01,2013-01-15 20:06:00,
2013-01-15 15:11:00,41.3,39.7,30.38,SSE,164,0.0,9.0,94,0.05,,SCT,0.56,18.00,VWS V14.01,2013-01-15 20:11:00,
2013-01-15 15:16:00,41.3,40.0,30.38,South,182,6.0,9.0,95,0.05,,SCT,0.56,32.00,VWS V14.01,2013-01-15 20:16:00,
2013-01-15 15:21:00,41.2,39.9,30.37,South,174,2.0,9.0,95,0.05,,SCT,0.56,26.00,VWS V14.01,2013-01-15 20:21:00,
2013-01-15 15:26:00,41.2,39.9,30.37,South,175,5.0,9.0,95,0.06,,SCT,0.57,33.00,VWS V14.01,2013-01-15 20:26:00,
2013-01-15 15:31:00,41.1,39.8,30.38,South,175,1.0,9.0,95,0.06,,SCT,0.57,26.00,VWS V14.01,2013-01-15 20:31:00,
2013-01-15 15:36:00,41.2,39.9,30.38,South,182,5.0,9.0,95,0.07,,SCT,0.58,26.00,VWS V14.01,2013-01-15 20:36:00,
2013-01-15 15:41:00,41.2,39.9,30.37,South,187,2.0,9.0,95,0.07,,SCT,0.58,21.00,VWS V14.01,2013-01-15 20:41:00,
2013-01-15 15:46:00,41.1,39.8,30.37,SSW,203,4.0,9.0,95,0.08,,SCT,0.59,30.00,VWS V14.01,2013-01-15 20:46:00,
2013-01-15 15:51:00,41.1,39.8,30.37,SW,217,4.0,9.0,95,0.08,,SCT,0.59,19.00,VWS V14.01,2013-01-15 20:51:00,
2013-01-15 15:56:00,41.1,39.8,30.38,South,186,3.0,5.0,95,0.06,,SCT,0.60,11.00,VWS V14.01,2013-01-15 20:56:00,
2013-01-15 16:00:00,41.1,39.8,30.38,South,177,4.0,9.0,95,0.08,,SCT,0.59,14.00,VWS V14.01,2013-01-15 21:00:00,
2013-01-15 16:01:00,41.1,39.8,30.38,South,186,4.0,6.0,95,0.06,,SCT,0.60,9.00,VWS V14.01,2013-01-15 21:01:00,
2013-01-15 16:06:00,41.1,39.8,30.39,South,175,0.0,6.0,95,0.06,,SCT,0.60,5.00,VWS V14.01,2013-01-15 21:06:00,
2013-01-15 16:11:00,41.2,40.2,30.39,SSE,157,2.0,6.0,96,0.07,,SCT,0.61,5.00,VWS V14.01,2013-01-15 21:11:00,
2013-01-15 16:16:00,41.2,40.2,30.39,SSE,157,0.0,6.0,96,0.08,,SCT,0.62,7.00,VWS V14.01,2013-01-15 21:16:00,
2013-01-15 16:21:00,41.1,39.8,30.39,SSE,164,2.0,6.0,95,0.09,,SCT,0.63,7.00,VWS V14.01,2013-01-15 21:21:00,
2013-01-15 16:26:00,41.1,39.8,30.38,SSE,164,0.0,6.0,95,0.10,,SCT,0.64,7.00,VWS V14.01,2013-01-15 21:26:00,
2013-01-15 16:31:00,41.1,39.8,30.37,South,179,0.0,6.0,95,0.10,,SCT,0.64,5.00,VWS V14.01,2013-01-15 21:31:00,
2013-01-15 16:36:00,41.1,39.8,30.38,South,179,2.0,6.0,95,0.11,,SCT,0.65,0.00,VWS V14.01,2013-01-15 21:36:00,
2013-01-15 16:41:00,41.1,40.0,30.38,SSW,206,3.0,6.0,96,0.11,,SCT,0.65,0.00,VWS V14.01,2013-01-15 21:41:00,
2013-01-15 16:46:00,41.1,40.0,30.38,SSW,206,1.0,6.0,96,0.12,,SCT,0.66,0.00,VWS V14.01,2013-01-15 21:46:00,
2013-01-15 16:51:00,41.1,40.0,30.37,SSW,192,0.0,6.0,96,0.12,,SCT,0.66,0.00,VWS V14.01,2013-01-15 21:51:00,
2013-01-15 16:56:00,41.1,40.0,30.38,South,175,0.0,2.0,96,0.08,,SCT,0.67,0.00,VWS V14.01,2013-01-15 21:56:00,
2013-01-15 17:00:00,41.1,40.0,30.37,South,175,0.0,6.0,96,0.13,,SCT,0.67,0.00,VWS V14.01,2013-01-15 22:00:00,
2013-01-15 17:01:00,41.1,40.0,30.38,South,184,2.0,5.0,96,0.09,,SCT,0.68,0.00,VWS V14.01,2013-01-15 22:01:00,
2013-01-15 17:06:00,41.1,40.0,30.37,South,183,0.0,5.0,96,0.09,,SCT,0.68,0.00,VWS V14.01,2013-01-15 22:06:00,
2013-01-15 17:11:00,41.1,40.0,30.37,South,182,0.0,5.0,96,0.10,,SCT,0.69,0.00,VWS V14.01,2013-01-15 22:11:00,
2013-01-15 17:16:00,41.1,40.0,30.37,South,171,0.0,5.0,96,0.11,,SCT,0.70,0.00,VWS V14.01,2013-01-15 22:16:00,
2013-01-15 17:21:00,41.0,40.0,30.36,South,188,0.0,5.0,96,0.11,,SCT,0.70,0.00,VWS V14.01,2013-01-15 22:21:00,
2013-01-15 17:26:00,41.1,40.0,30.37,South,180,2.0,5.0,96,0.12,,SCT,0.71,0.00,VWS V14.01,2013-01-15 22:26:00,
2013-01-15 17:31:00,41.0,40.0,30.36,SSW,192,3.0,6.0,96,0.12,,SCT,0.71,0.00,VWS V14.01,2013-01-15 22:31:00,
2013-01-15 17:36:00,40.9,39.8,30.36,South,176,4.0,6.0,96,0.12,,SCT,0.71,0.00,VWS V14.01,2013-01-15 22:36:00,
2013-01-15 17:41:00,40.9,39.8,30.37,South,170,0.0,6.0,96,0.13,,SCT,0.72,0.00,VWS V14.01,2013-01-15 22:41:00,
2013-01-15 17:46:00,40.9,39.8,30.37,South,185,2.0,6.0,96,0.13,,SCT,0.72,0.00,VWS V14.01,2013-01-15 22:46:00,
2013-01-15 17:51:00,40.9,39.8,30.37,SSW,203,0.0,6.0,96,0.14,,SCT,0.73,0.00,VWS V14.01,2013-01-15 22:51:00,
2013-01-15 17:56:00,40.9,39.8,30.37,SSW,203,2.0,3.0,96,0.06,,SCT,0.73,0.00,VWS V14.01,2013-01-15 22:56:00,
2013-01-15 18:00:00,40.9,39.8,30.37,SSW,202,0.0,6.0,96,0.14,,SCT,0.73,0.00,VWS V14.01,2013-01-15 23:00:00,
2013-01-15 18:01:00,40.8,39.8,30.37,South,189,1.0,4.0,96,0.07,,SCT,0.74,0.00,VWS V14.01,2013-01-15 23:01:00,
2013-01-15 18:06:00,40.8,39.8,30.37,South,189,2.0,4.0,96,0.07,,SCT,0.74,0.00,VWS V14.01,2013-01-15 23:06:00,
2013-01-15 18:11:00,40.8,39.8,30.36,South,175,2.0,5.0,96,0.07,,SCT,0.74,0.00,VWS V14.01,2013-01-15 23:11:00,
2013-01-15 18:16:00,40.8,39.8,30.36,South,175,2.0,5.0,96,0.07,,SCT,0.74,0.00,VWS V14.01,2013-01-15 23:16:00,
2013-01-15 18:21:00,40.8,39.8,30.37,South,175,1.0,5.0,96,0.07,,SCT,0.74,0.00,VWS V14.01,2013-01-15 23:21:00,
2013-01-15 18:26:00,40.8,39.8,30.37,South,175,0.0,5.0,96,0.08,,SCT,0.75,0.00,VWS V14.01,2013-01-15 23:26:00,
2013-01-15 18:31:00,40.9,39.8,30.37,SSE,167,2.0,5.0,96,0.08,,SCT,0.75,0.00,VWS V14.01,2013-01-15 23:31:00,
2013-01-15 18:36:00,40.9,39.8,30.37,SSE,164,1.0,6.0,96,0.08,,SCT,0.75,0.00,VWS V14.01,2013-01-15 23:36:00,
2013-01-15 18:41:00,40.9,39.8,30.36,South,183,4.0,6.0,96,0.08,,SCT,0.75,0.00,VWS V14.01,2013-01-15 23:41:00,
2013-01-15 18:46:00,40.7,39.7,30.36,South,187,3.0,8.0,96,0.08,,SCT,0.75,0.00,VWS V14.01,2013-01-15 23:46:00,
2013-01-15 18:51:00,40.7,39.7,30.35,South,186,2.0,8.0,96,0.09,,SCT,0.76,0.00,VWS V14.01,2013-01-15 23:51:00,
2013-01-15 18:56:00,40.6,39.5,30.36,SSE,153,4.0,7.0,96,0.03,,SCT,0.76,0.00,VWS V14.01,2013-01-15 23:56:00,
2013-01-15 19:00:00,40.6,39.5,30.36,South,171,4.0,8.0,96,0.09,,SCT,0.76,0.00,VWS V14.01,2013-01-16 00:00:00,
2013-01-15 19:01:00,40.6,39.5,30.37,SSE,153,0.0,7.0,96,0.03,,SCT,0.76,0.00,VWS V14.01,2013-01-16 00:01:00,
2013-01-15 19:06:00,40.6,39.5,30.36,South,184,3.0,7.0,96,0.03,,SCT,0.76,0.00,VWS V14.01,2013-01-16 00:06:00,
2013-01-15 19:11:00,40.6,39.5,30.36,South,184,3.0,7.0,96,0.03,,SCT,0.76,0.00,VWS V14.01,2013-01-16 00:11:00,
2013-01-15 19:16:00,40.6,39.5,30.37,South,184,3.0,7.0,96,0.03,,SCT,0.76,0.00,VWS V14.01,2013-01-16 00:16:00,
2013-01-15 19:21:00,40.6,39.5,30.37,South,184,3.0,7.0,96,0.03,,SCT,0.76,0.00,VWS V14.01,2013-01-16 00:21:00,
2013-01-15 19:26:00,40.6,39.5,30.37,South,184,3.0,7.0,96,0.03,,SCT,0.76,0.00,VWS V14.01,2013-01-16 00:26:00,
2013-01-15 19:31:00,40.4,39.3,30.37,South,174,0.0,7.0,96,0.05,,SCT,0.78,0.00,VWS V14.01,2013-01-16 00:31:00,
2013-01-15 19:36:00,40.4,39.3,30.37,SSE,159,4.0,7.0,96,0.05,,SCT,0.78,0.00,VWS V14.01,2013-01-16 00:36:00,
2013-01-15 19:41:00,40.4,39.3,30.37,SSE,148,0.0,7.0,96,0.05,,SCT,0.78,0.00,VWS V14.01,2013-01-16 00:41:00,
2013-01-15 19:46:00,40.4,39.3,30.36,SSE,167,5.0,7.0,96,0.06,,SCT,0.79,0.00,VWS V14.01,2013-01-16 00:46:00,
2013-01-15 19:51:00,40.4,39.3,30.36,SSW,192,4.0,9.0,96,0.06,,SCT,0.79,0.00,VWS V14.01,2013-01-16 00:51:00,
2013-01-15 19:56:00,40.4,39.3,30.36,South,184,2.0,6.0,96,0.03,,SCT,0.79,0.00,VWS V14.01,2013-01-16 00:56:00,
2013-01-15 20:00:00,40.4,39.3,30.36,SSE,159,5.0,9.0,96,0.06,,SCT,0.79,0.00,VWS V14.01,2013-01-16 01:00:00,
2013-01-15 20:01:00,40.3,39.2,30.35,SSW,193,1.0,6.0,96,0.03,,SCT,0.79,0.00,VWS V14.01,2013-01-16 01:01:00,
2013-01-15 20:06:00,40.3,39.2,30.35,SSW,196,3.0,10.0,96,0.04,,SCT,0.80,0.00,VWS V14.01,2013-01-16 01:06:00,
2013-01-15 20:11:00,40.3,39.2,30.36,SSE,156,2.0,10.0,96,0.04,,SCT,0.80,0.00,VWS V14.01,2013-01-16 01:11:00,
2013-01-15 20:16:00,40.3,39.2,30.35,SSW,194,3.0,10.0,96,0.05,,SCT,0.81,0.00,VWS V14.01,2013-01-16 01:16:00,
2013-01-15 20:21:00,40.3,39.2,30.35,South,184,3.0,10.0,96,0.05,,SCT,0.81,0.00,VWS V14.01,2013-01-16 01:21:00,
2013-01-15 20:26:00,40.3,39.2,30.35,SSW,196,3.0,10.0,96,0.06,,SCT,0.82,0.00,VWS V14.01,2013-01-16 01:26:00,
2013-01-15 20:31:00,40.4,39.3,30.36,South,191,0.0,10.0,96,0.06,,SCT,0.82,0.00,VWS V14.01,2013-01-16 01:31:00,
2013-01-15 20:36:00,40.4,39.3,30.36,SSW,198,1.0,10.0,96,0.06,,SCT,0.82,0.00,VWS V14.01,2013-01-16 01:36:00,
2013-01-15 20:41:00,40.4,39.3,30.35,SW,217,4.0,10.0,96,0.06,,SCT,0.82,0.00,VWS V14.01,2013-01-16 01:41:00,
2013-01-15 20:46:00,40.4,39.3,30.34,SSW,208,3.0,10.0,96,0.07,,SCT,0.83,0.00,VWS V14.01,2013-01-16 01:46:00,
2013-01-15 20:51:00,40.3,39.2,30.34,SSW,193,6.0,10.0,96,0.07,,SCT,0.83,0.00,VWS V14.01,2013-01-16 01:51:00,
2013-01-15 20:56:00,40.3,39.2,30.33,SSW,205,4.0,6.0,96,0.05,,SCT,0.84,0.00,VWS V14.01,2013-01-16 01:56:00,
2013-01-15 21:00:00,40.3,39.2,30.33,SW,218,3.0,10.0,96,0.08,,SCT,0.84,0.00,VWS V14.01,2013-01-16 02:00:00,
2013-01-15 21:01:00,40.3,39.2,30.33,SSW,209,3.0,6.0,96,0.05,,SCT,0.84,0.00,VWS V14.01,2013-01-16 02:01:00,
2013-01-15 21:06:00,40.2,39.2,30.32,SSW,213,4.0,7.0,96,0.05,,SCT,0.84,0.00,VWS V14.01,2013-01-16 02:06:00,
2013-01-15 21:11:00,40.2,39.2,30.32,SW,215,2.0,7.0,96,0.05,,SCT,0.84,0.00,VWS V14.01,2013-01-16 02:11:00,
2013-01-15 21:16:00,40.2,39.2,30.32,SSW,196,4.0,8.0,96,0.06,,SCT,0.85,0.00,VWS V14.01,2013-01-16 02:16:00,
2013-01-15 21:21:00,40.1,39.0,30.32,South,188,3.0,8.0,96,0.06,,SCT,0.85,0.00,VWS V14.01,2013-01-16 02:21:00,
2013-01-15 21:26:00,40.1,39.0,30.32,South,187,3.0,8.0,96,0.07,,SCT,0.86,0.00,VWS V14.01,2013-01-16 02:26:00,
2013-01-15 21:31:00,40.1,39.3,30.31,SSW,192,3.0,8.0,97,0.07,,SCT,0.86,0.00,VWS V14.01,2013-01-16 02:31:00,
2013-01-15 21:36:00,40.1,39.3,30.31,SSW,207,4.0,8.0,97,0.08,,SCT,0.87,0.00,VWS V14.01,2013-01-16 02:36:00,
2013-01-15 21:41:00,40.1,39.3,30.31,SSW,197,2.0,8.0,97,0.09,,SCT,0.88,0.00,VWS V14.01,2013-01-16 02:41:00,
2013-01-15 21:46:00,40.1,39.3,30.31,SSW,204,3.0,8.0,97,0.09,,SCT,0.88,0.00,VWS V14.01,2013-01-16 02:46:00,
2013-01-15 21:51:00,40.1,39.3,30.31,SSW,192,5.0,8.0,97,0.09,,SCT,0.88,0.00,VWS V14.01,2013-01-16 02:51:00,
2013-01-15 21:56:00,40.1,39.3,30.31,SSW,197,1.0,5.0,97,0.05,,SCT,0.89,0.00,VWS V14.01,2013-01-16 02:56:00,
2013-01-15 22:00:00,40.1,39.3,30.31,SSW,195,4.0,8.0,97,0.10,,SCT,0.89,0.00,VWS V14.01,2013-01-16 03:00:00,
2013-01-15 22:01:00,40.1,39.3,30.30,South,184,5.0,6.0,97,0.05,,SCT,0.89,0.00,VWS V14.01,2013-01-16 03:01:00,
2013-01-15 22:06:00,40.1,39.3,30.30,South,183,3.0,8.0,97,0.06,,SCT,0.90,0.00,VWS V14.01,2013-01-16 03:06:00,
2013-01-15 22:11:00,40.1,39.3,30.31,South,173,4.0,8.0,97,0.06,,SCT,0.90,0.00,VWS V14.01,2013-01-16 03:11:00,
2013-01-15 22:16:00,40.1,39.3,30.30,South,186,2.0,8.0,97,0.07,,SCT,0.91,0.00,VWS V14.01,2013-01-16 03:16:00,
2013-01-15 22:21:00,40.1,39.3,30.30,SSW,198,2.0,8.0,97,0.07,,SCT,0.91,0.00,VWS V14.01,2013-01-16 03:21:00,
2013-01-15 22:26:00,40.1,39.3,30.30,South,175,1.0,8.0,97,0.08,,SCT,0.92,0.00,VWS V14.01,2013-01-16 03:26:00,
2013-01-15 22:31:00,40.1,39.3,30.30,SSE,161,2.0,8.0,97,0.09,,SCT,0.93,0.00,VWS V14.01,2013-01-16 03:31:00,
2013-01-15 22:36:00,40.1,39.3,30.29,South,177,4.0,8.0,97,0.09,,SCT,0.93,0.00,VWS V14.01,2013-01-16 03:36:00,
2013-01-15 22:41:00,40.1,39.3,30.29,South,180,4.0,9.0,97,0.10,,SCT,0.94,0.00,VWS V14.01,2013-01-16 03:41:00,
2013-01-15 22:46:00,40.1,39.3,30.30,SSW,198,6.0,9.0,97,0.10,,SCT,0.94,0.00,VWS V14.01,2013-01-16 03:46:00,
2013-01-15 22:51:00,40.1,39.3,30.29,South,184,3.0,9.0,97,0.10,,SCT,0.94,0.00,VWS V14.01,2013-01-16 03:51:00,
2013-01-15 22:56:00,40.1,39.3,30.29,South,184,3.0,3.0,97,0.05,,SCT,0.94,0.00,VWS V14.01,2013-01-16 03:56:00,
2013-01-15 23:00:00,40.1,39.3,30.30,South,184,3.0,9.0,97,0.10,,SCT,0.94,0.00,VWS V14.01,2013-01-16 04:00:00,
2013-01-15 23:01:00,40.1,39.3,30.29,South,184,3.0,3.0,97,0.05,,SCT,0.94,0.00,VWS V14.01,2013-01-16 04:01:00,
2013-01-15 23:06:00,40.1,39.3,30.29,South,184,3.0,3.0,97,0.05,,SCT,0.94,0.00,VWS V14.01,2013-01-16 04:06:00,
2013-01-15 23:11:00,40.1,39.3,30.28,South,184,3.0,3.0,97,0.05,,SCT,0.94,0.00,VWS V14.01,2013-01-16 04:11:00,
2013-01-15 23:16:00,40.1,39.3,30.28,South,184,3.0,3.0,97,0.05,,SCT,0.94,0.00,VWS V14.01,2013-01-16 04:16:00,
2013-01-15 23:21:00,40.1,39.3,30.28,South,184,3.0,3.0,97,0.05,,SCT,0.94,0.00,VWS V14.01,2013-01-16 04:21:00,
2013-01-15 23:26:00,40.1,39.3,30.28,South,184,3.0,3.0,97,0.05,,SCT,0.94,0.00,VWS V14.01,2013-01-16 04:26:00,
2013-01-15 23:31:00,40.1,39.3,30.28,South,184,3.0,3.0,97,0.05,,SCT,0.94,0.00,VWS V14.01,2013-01-16 04:31:00,
2013-01-15 23:36:00,40.1,39.3,30.28,South,184,3.0,3.0,97,0.05,,SCT,0.94,0.00,VWS V14.01,2013-01-16 04:36:00,
2013-01-15 23:41:00,40.1,39.3,30.27,South,184,3.0,3.0,97,0.05,,SCT,0.94,0.00,VWS V14.01,2013-01-16 04:41:00,
2013-01-15 23:46:00,40.1,39.3,30.27,South,184,3.0,3.0,97,0.05,,SCT,0.94,0.00,VWS V14.01,2013-01-16 04:46:00,
2013-01-15 23:51:00,40.1,39.3,30.27,South,184,3.0,3.0,97,0.05,,SCT,0.94,0.00,VWS V14.01,2013-01-16 04:51:00,
2013-01-15 23:56:00,40.1,39.3,30.27,South,184,3.0,3.0,97,0.00,,SCT,0.00,0.00,VWS V14.01,2013-01-16 04:56:00,